createdAt,value
2023-01-30T00:01:27.896Z,27.88
2023-01-30T00:03:56.585Z,27.84
2023-01-30T00:06:25.206Z,27.79
2023-01-30T00:08:54.040Z,27.75
2023-01-30T00:11:23.806Z,27.68
2023-01-30T00:13:52.135Z,27.63
2023-01-30T00:16:20.446Z,27.57
2023-01-30T00:18:48.682Z,27.51
2023-01-30T00:21:17.465Z,27.45
2023-01-30T00:23:46.096Z,27.39
2023-01-30T00:26:14.435Z,27.34
2023-01-30T00:28:42.723Z,27.30
2023-01-30T00:31:11.004Z,27.25
2023-01-30T00:33:39.941Z,27.24
2023-01-30T00:36:08.650Z,27.26
2023-01-30T00:38:37.004Z,27.32
2023-01-30T00:41:05.332Z,27.40
2023-01-30T00:43:52.274Z,27.51
2023-01-30T00:46:45.061Z,27.73
2023-01-30T00:49:13.277Z,27.88
2023-01-30T00:51:41.527Z,27.83
2023-01-30T00:54:09.763Z,27.90
2023-01-30T00:56:38.030Z,27.95
2023-01-30T00:59:06.322Z,28.00
2023-01-30T01:01:34.642Z,28.04
2023-01-30T01:04:02.990Z,28.08
2023-01-30T01:06:31.271Z,28.06
2023-01-30T01:08:59.525Z,28.09
2023-01-30T01:11:27.757Z,28.11
2023-01-30T01:13:58.047Z,28.09
2023-01-30T01:16:27.476Z,28.06
2023-01-30T01:18:55.749Z,28.04
2023-01-30T01:21:24.299Z,28.04
2023-01-30T01:23:54.021Z,27.98
2023-01-30T01:26:22.678Z,27.95
2023-01-30T01:28:55.109Z,27.94
2023-01-30T01:31:24.577Z,27.93
2023-01-30T01:33:53.217Z,27.88
2023-01-30T01:36:49.864Z,27.79
2023-01-30T01:39:09.542Z,27.89
2023-01-30T01:41:37.791Z,27.71
2023-01-30T01:44:11.224Z,27.64
2023-01-30T01:46:50.741Z,27.61
2023-01-30T01:49:24.369Z,27.62
2023-01-30T01:52:05.646Z,27.52
2023-01-30T01:54:50.409Z,27.53
2023-01-30T01:57:44.042Z,27.48
2023-01-30T02:00:15.079Z,27.49
2023-01-30T02:02:52.236Z,27.32
2023-01-30T02:05:21.038Z,27.29
2023-01-30T02:08:12.540Z,27.21
2023-01-30T02:10:55.251Z,27.30
2023-01-30T02:13:23.643Z,27.28
2023-01-30T02:15:52.362Z,27.26
2023-01-30T02:18:20.740Z,27.34
2023-01-30T02:20:54.933Z,27.46
2023-01-30T02:23:44.746Z,27.60
2023-01-30T02:26:24.619Z,27.80
2023-01-30T02:29:21.881Z,27.85
2023-01-30T02:32:05.042Z,28.04
2023-01-30T02:34:55.120Z,28.04
2023-01-30T02:37:46.537Z,28.12
2023-01-30T02:40:39.545Z,28.18
2023-01-30T02:43:34.451Z,28.18
2023-01-30T02:46:11.904Z,28.20
2023-01-30T02:48:44.462Z,28.11
2023-01-30T02:51:22.545Z,28.06
2023-01-30T02:53:51.465Z,28.09
2023-01-30T02:56:19.799Z,28.01
2023-01-30T02:58:56.942Z,28.02
2023-01-30T03:01:39.469Z,28.00
2023-01-30T03:04:27.870Z,28.01
2023-01-30T03:07:20.068Z,28.03
2023-01-30T03:10:26.784Z,27.99
2023-01-30T03:13:22.997Z,28.00
2023-01-30T03:15:58.069Z,27.94
2023-01-30T03:18:26.407Z,27.75
2023-01-30T03:20:55.285Z,27.66
2023-01-30T03:23:23.496Z,27.60
2023-01-30T03:25:51.693Z,27.55
2023-01-30T03:28:21.599Z,27.52
2023-01-30T03:30:49.905Z,27.46
2023-01-30T03:33:18.173Z,27.41
2023-01-30T03:35:46.365Z,27.36
2023-01-30T03:38:14.970Z,27.31
2023-01-30T03:40:43.238Z,27.27
2023-01-30T03:43:11.498Z,27.24
2023-01-30T03:45:39.803Z,27.18
2023-01-30T03:48:08.166Z,27.16
2023-01-30T03:50:36.397Z,27.16
2023-01-30T03:53:04.690Z,27.18
2023-01-30T03:55:32.916Z,27.27
2023-01-30T03:58:01.156Z,27.37
2023-01-30T04:00:29.453Z,27.48
2023-01-30T04:02:59.108Z,27.60
2023-01-30T04:05:27.712Z,27.71
2023-01-30T04:07:57.914Z,27.82
2023-01-30T04:10:27.183Z,27.89
2023-01-30T04:12:55.419Z,27.96
2023-01-30T04:15:23.687Z,28.01
2023-01-30T04:17:51.979Z,28.04
2023-01-30T04:20:20.692Z,28.04
2023-01-30T04:22:48.882Z,28.08
2023-01-30T04:25:17.589Z,28.10
2023-01-30T04:27:46.128Z,28.08
2023-01-30T04:30:14.670Z,28.07
2023-01-30T04:32:43.015Z,28.04
2023-01-30T04:35:11.820Z,28.02
2023-01-30T04:37:40.134Z,28.02
2023-01-30T04:40:08.982Z,27.98
2023-01-30T04:42:37.306Z,27.98
2023-01-30T04:45:06.105Z,27.91
2023-01-30T04:47:34.327Z,27.87
2023-01-30T04:50:02.666Z,27.83
2023-01-30T04:52:30.929Z,27.78
2023-01-30T04:54:59.272Z,27.74
2023-01-30T04:57:27.517Z,27.69
2023-01-30T04:59:55.943Z,27.65
2023-01-30T05:02:24.267Z,27.62
2023-01-30T05:04:52.597Z,27.58
2023-01-30T05:07:20.788Z,27.53
2023-01-30T05:09:49.042Z,27.47
2023-01-30T05:12:17.303Z,27.42
2023-01-30T05:14:46.713Z,27.37
2023-01-30T05:17:15.043Z,27.33
2023-01-30T05:19:43.276Z,27.29
2023-01-30T05:22:11.517Z,27.24
2023-01-30T05:24:39.789Z,27.20
2023-01-30T05:27:08.059Z,27.17
2023-01-30T05:29:36.328Z,27.16
2023-01-30T05:32:04.836Z,27.21
2023-01-30T05:34:33.093Z,27.29
2023-01-30T05:37:01.344Z,27.39
2023-01-30T05:39:29.619Z,27.51
2023-01-30T05:41:57.946Z,27.63
2023-01-30T05:44:26.272Z,27.73
2023-01-30T05:46:54.571Z,27.82
2023-01-30T05:49:22.765Z,27.89
2023-01-30T05:51:51.642Z,27.97
2023-01-30T05:54:19.993Z,28.00
2023-01-30T05:56:51.749Z,28.03
2023-01-30T05:59:20.123Z,28.06
2023-01-30T06:01:48.300Z,28.06
2023-01-30T06:04:16.517Z,28.07
2023-01-30T06:06:44.844Z,28.06
2023-01-30T06:09:13.099Z,28.08
2023-01-30T06:11:41.299Z,28.03
2023-01-30T06:14:09.585Z,28.03
2023-01-30T06:16:37.910Z,28.02
2023-01-30T06:19:06.225Z,28.01
2023-01-30T06:21:34.573Z,27.97
2023-01-30T06:24:03.733Z,27.93
2023-01-30T06:26:31.994Z,27.91
2023-01-30T06:29:00.251Z,27.86
2023-01-30T06:31:28.597Z,27.86
2023-01-30T06:33:56.858Z,27.82
2023-01-30T06:36:25.170Z,27.79
2023-01-30T06:38:53.399Z,27.75
2023-01-30T06:41:21.761Z,27.72
2023-01-30T06:43:49.979Z,27.66
2023-01-30T06:46:18.428Z,27.62
2023-01-30T06:48:46.743Z,27.60
2023-01-30T06:51:15.002Z,27.56
2023-01-30T06:53:43.193Z,27.52
2023-01-30T06:56:11.464Z,27.48
2023-01-30T06:58:39.645Z,27.43
2023-01-30T07:01:07.886Z,27.41
2023-01-30T07:03:36.264Z,27.34
2023-01-30T07:06:04.553Z,27.30
2023-01-30T07:08:32.939Z,27.28
2023-01-30T07:11:01.314Z,27.21
2023-01-30T07:13:29.628Z,27.17
2023-01-30T07:15:57.898Z,27.15
2023-01-30T07:18:26.653Z,27.15
2023-01-30T07:20:54.893Z,27.19
2023-01-30T07:23:23.197Z,27.27
2023-01-30T07:25:51.670Z,27.38
2023-01-30T07:28:19.961Z,27.51
2023-01-30T07:30:50.337Z,27.63
2023-01-30T07:33:19.023Z,27.73
2023-01-30T07:35:47.258Z,27.82
2023-01-30T07:38:15.569Z,27.92
2023-01-30T07:40:43.875Z,27.96
2023-01-30T07:43:13.904Z,28.00
2023-01-30T07:45:44.361Z,28.05
2023-01-30T07:48:14.328Z,28.09
2023-01-30T07:50:43.361Z,28.08
2023-01-30T07:53:14.062Z,28.14
2023-01-30T07:55:42.644Z,28.15
2023-01-30T07:58:15.809Z,28.17
2023-01-30T08:00:44.519Z,28.18
2023-01-30T08:03:16.826Z,28.20
2023-01-30T08:05:48.357Z,28.19
2023-01-30T08:08:16.633Z,28.20
2023-01-30T08:10:45.150Z,28.17
2023-01-30T08:13:13.392Z,28.12
2023-01-30T08:15:41.660Z,28.11
2023-01-30T08:18:09.896Z,28.07
2023-01-30T08:20:38.354Z,28.03
2023-01-30T08:23:06.613Z,28.00
2023-01-30T08:25:35.734Z,28.00
2023-01-30T08:28:05.081Z,27.99
2023-01-30T08:30:33.543Z,28.00
2023-01-30T08:33:01.806Z,28.00
2023-01-30T08:35:30.013Z,27.96
2023-01-30T08:37:58.444Z,27.95
2023-01-30T08:40:26.778Z,27.90
2023-01-30T08:42:55.553Z,27.89
2023-01-30T08:45:23.785Z,27.81
2023-01-30T08:47:52.104Z,27.77
2023-01-30T08:50:20.572Z,27.75
2023-01-30T08:52:49.026Z,27.74
2023-01-30T08:55:18.292Z,27.72
2023-01-30T08:57:47.164Z,27.72
2023-01-30T09:00:16.899Z,27.71
2023-01-30T09:02:48.000Z,27.66
2023-01-30T09:05:16.491Z,27.64
2023-01-30T09:07:44.850Z,27.61
2023-01-30T09:10:13.287Z,27.60
2023-01-30T09:12:41.771Z,27.55
2023-01-30T09:15:10.751Z,27.53
2023-01-30T09:17:39.102Z,27.52
2023-01-30T09:20:08.461Z,27.48
2023-01-30T09:22:37.457Z,27.44
2023-01-30T09:25:06.656Z,27.41
2023-01-30T09:27:35.341Z,27.38
2023-01-30T09:30:05.258Z,27.34
2023-01-30T09:32:34.825Z,27.32
2023-01-30T09:35:03.765Z,27.30
2023-01-30T09:37:32.076Z,27.26
2023-01-30T09:40:00.275Z,27.22
2023-01-30T09:42:46.480Z,27.19
2023-01-30T09:45:44.030Z,27.25
2023-01-30T09:48:18.216Z,27.30
2023-01-30T09:51:03.676Z,27.14
2023-01-30T09:53:47.607Z,27.18
2023-01-30T09:56:15.861Z,27.13
2023-01-30T09:58:57.105Z,27.01
2023-01-30T10:01:37.573Z,27.04
2023-01-30T10:04:10.537Z,27.02
2023-01-30T10:07:04.659Z,26.96
2023-01-30T10:09:42.014Z,27.07
2023-01-30T10:12:45.607Z,26.95
2023-01-30T10:15:29.178Z,27.05
2023-01-30T10:18:12.280Z,26.94
2023-01-30T10:21:09.437Z,26.90
2023-01-30T10:24:02.153Z,26.94
2023-01-30T10:26:31.628Z,26.89
2023-01-30T10:29:23.517Z,26.75
2023-01-30T10:31:58.195Z,26.86
2023-01-30T10:34:30.230Z,26.76
2023-01-30T10:37:00.378Z,26.72
2023-01-30T10:39:49.641Z,26.70
2023-01-30T10:42:38.880Z,26.83
2023-01-30T10:45:14.309Z,26.76
2023-01-30T10:47:57.700Z,26.71
2023-01-30T10:50:37.292Z,26.74
2023-01-30T10:53:34.679Z,26.72
2023-01-30T10:56:28.670Z,26.81
2023-01-30T10:59:24.009Z,26.81
2023-01-30T11:01:59.774Z,26.80
2023-01-30T11:04:59.487Z,26.68
2023-01-30T11:07:30.987Z,26.80
2023-01-30T11:10:00.478Z,26.65
2023-01-30T11:12:28.690Z,26.60
2023-01-30T11:14:59.117Z,26.58
2023-01-30T11:17:34.113Z,26.56
2023-01-30T11:20:24.708Z,26.56
2023-01-30T11:23:08.462Z,26.67
2023-01-30T11:26:02.367Z,26.51
2023-01-30T11:28:45.932Z,26.39
2023-01-30T11:31:31.559Z,26.15
2023-01-30T11:34:14.049Z,26.16
2023-01-30T11:36:42.783Z,26.11
2023-01-30T11:39:14.472Z,26.15
2023-01-30T11:41:44.500Z,26.25
2023-01-30T11:44:12.759Z,26.37
2023-01-30T11:46:43.384Z,26.55
2023-01-30T11:49:47.597Z,26.73
2023-01-30T11:52:04.827Z,27.07
2023-01-30T11:54:39.178Z,27.12
2023-01-30T11:57:12.451Z,27.26
2023-01-30T11:59:44.511Z,27.37
2023-01-30T12:02:17.172Z,27.46
2023-01-30T12:04:46.710Z,27.55
2023-01-30T12:07:28.638Z,27.59
2023-01-30T12:09:58.574Z,27.72
2023-01-30T12:12:45.842Z,27.70
2023-01-30T12:15:17.096Z,27.81
2023-01-30T12:18:04.062Z,27.73
2023-01-30T12:20:53.522Z,27.83
2023-01-30T12:23:30.183Z,27.86
2023-01-30T12:26:05.870Z,27.81
2023-01-30T12:28:57.951Z,27.78
2023-01-30T12:31:29.996Z,27.84
2023-01-30T12:33:58.278Z,27.71
2023-01-30T12:36:38.569Z,27.67
2023-01-30T12:39:14.645Z,27.72
2023-01-30T12:41:53.776Z,27.67
2023-01-30T12:44:21.931Z,27.66
2023-01-30T12:47:25.378Z,27.58
2023-01-30T12:49:59.552Z,27.73
2023-01-30T12:52:40.136Z,27.54
2023-01-30T12:55:32.881Z,27.53
2023-01-30T12:58:06.994Z,27.56
2023-01-30T13:01:01.013Z,27.43
2023-01-30T13:03:53.339Z,27.49
2023-01-30T13:06:36.562Z,27.45
2023-01-30T13:09:34.098Z,27.35
2023-01-30T13:12:14.570Z,27.39
2023-01-30T13:14:57.369Z,27.27
2023-01-30T13:18:07.452Z,27.24
2023-01-30T13:20:48.068Z,27.32
2023-01-30T13:23:25.295Z,27.14
2023-01-30T13:26:06.178Z,27.06
2023-01-30T13:28:46.246Z,27.04
2023-01-30T13:31:21.750Z,27.00
2023-01-30T13:33:53.892Z,26.93
2023-01-30T13:36:29.124Z,26.88
2023-01-30T13:39:01.767Z,26.85
2023-01-30T13:41:39.941Z,26.82
2023-01-30T13:44:21.276Z,26.90
2023-01-30T13:46:52.001Z,27.02
2023-01-30T13:49:26.264Z,27.08
2023-01-30T13:51:59.107Z,27.26
2023-01-30T13:54:52.863Z,27.40
2023-01-30T13:57:30.065Z,27.68
2023-01-30T14:00:25.136Z,27.72
2023-01-30T14:03:08.540Z,27.95
2023-01-30T14:05:52.152Z,27.97
2023-01-30T14:08:40.620Z,28.02
2023-01-30T14:11:32.991Z,28.09
2023-01-30T14:14:20.927Z,28.17
2023-01-30T14:16:51.660Z,28.16
2023-01-30T14:19:32.562Z,28.04
2023-01-30T14:22:04.591Z,28.10
2023-01-30T14:24:32.924Z,28.05
2023-01-30T14:27:02.642Z,28.06
2023-01-30T14:29:42.530Z,28.01
2023-01-30T14:32:14.370Z,28.04
2023-01-30T14:34:43.628Z,27.96
2023-01-30T14:37:38.071Z,27.92
2023-01-30T14:40:21.576Z,28.01
2023-01-30T14:43:15.149Z,27.94
2023-01-30T14:45:50.166Z,27.95
2023-01-30T14:48:57.647Z,27.83
2023-01-30T14:51:36.929Z,27.91
2023-01-30T14:54:14.914Z,27.74
2023-01-30T14:56:46.126Z,27.71
2023-01-30T14:59:17.101Z,27.64
2023-01-30T15:02:15.240Z,27.61
2023-01-30T15:04:59.309Z,27.68
2023-01-30T15:07:37.643Z,27.56
2023-01-30T15:10:29.852Z,27.48
2023-01-30T15:13:16.151Z,27.51
2023-01-30T15:15:44.314Z,27.42
2023-01-30T15:18:24.553Z,27.29
2023-01-30T15:20:55.858Z,27.31
2023-01-30T15:23:42.846Z,27.22
2023-01-30T15:26:21.880Z,27.27
2023-01-30T15:29:02.168Z,27.18
2023-01-30T15:31:30.554Z,27.17
2023-01-30T15:33:58.849Z,27.08
2023-01-30T15:36:35.469Z,27.03
2023-01-30T15:39:18.855Z,27.02
2023-01-30T15:41:47.741Z,27.04
2023-01-30T15:44:49.918Z,26.96
2023-01-30T15:47:44.945Z,27.17
2023-01-30T15:50:13.179Z,27.23
2023-01-30T15:52:46.579Z,27.18
2023-01-30T15:55:23.917Z,27.33
2023-01-30T15:57:57.293Z,27.47
2023-01-30T16:00:47.355Z,27.63
2023-01-30T16:03:22.435Z,27.89
2023-01-30T16:05:57.884Z,27.90
2023-01-30T16:08:31.487Z,27.99
2023-01-30T16:11:00.949Z,28.07
2023-01-30T16:13:29.892Z,28.12
2023-01-30T16:16:03.549Z,28.13
2023-01-30T16:18:41.523Z,28.19
2023-01-30T16:21:17.720Z,28.26
2023-01-30T16:24:12.253Z,28.29
2023-01-30T16:26:45.039Z,28.37
2023-01-30T16:29:23.153Z,28.27
2023-01-30T16:31:52.918Z,28.24
2023-01-30T16:34:34.577Z,28.16
2023-01-30T16:37:07.939Z,28.22
2023-01-30T16:39:37.914Z,28.16
2023-01-30T16:42:26.290Z,28.08
2023-01-30T16:45:16.210Z,28.15
2023-01-30T16:47:44.591Z,28.12
2023-01-30T16:50:21.924Z,27.92
2023-01-30T16:52:55.228Z,27.87
2023-01-30T16:55:27.256Z,27.67
2023-01-30T16:58:01.263Z,27.47
2023-01-30T17:00:35.818Z,27.28
2023-01-30T17:03:19.346Z,27.10
2023-01-30T17:05:49.468Z,26.99
2023-01-30T17:08:33.217Z,26.77
2023-01-30T17:11:03.214Z,26.66
2023-01-30T17:13:31.587Z,26.42
2023-01-30T17:16:26.289Z,26.30
2023-01-30T17:18:58.421Z,26.34
2023-01-30T17:21:50.252Z,26.19
2023-01-30T17:24:20.355Z,26.34
2023-01-30T17:26:51.451Z,26.28
2023-01-30T17:29:41.483Z,26.37
2023-01-30T17:32:14.306Z,26.64
2023-01-30T17:34:42.892Z,26.66
2023-01-30T17:37:16.402Z,26.68
2023-01-30T17:39:44.678Z,26.85
2023-01-30T17:42:14.136Z,26.95
2023-01-30T17:44:42.425Z,27.03
2023-01-30T17:47:12.254Z,27.12
2023-01-30T17:49:40.616Z,27.20
2023-01-30T17:52:09.251Z,27.27
2023-01-30T17:54:37.527Z,27.31
2023-01-30T17:57:07.106Z,27.34
2023-01-30T17:59:35.954Z,27.36
2023-01-30T18:02:05.367Z,27.38
2023-01-30T18:04:33.596Z,27.40
2023-01-30T18:07:04.736Z,27.41
2023-01-30T18:09:32.997Z,27.40
2023-01-30T18:12:01.483Z,27.39
2023-01-30T18:14:29.792Z,27.39
2023-01-30T18:17:00.566Z,27.38
2023-01-30T18:19:29.867Z,27.38
2023-01-30T18:21:58.617Z,27.36
2023-01-30T18:24:26.914Z,27.34
2023-01-30T18:26:55.220Z,27.32
2023-01-30T18:29:23.518Z,27.30
2023-01-30T18:31:51.912Z,27.28
2023-01-30T18:34:20.152Z,27.25
2023-01-30T18:36:48.530Z,27.23
2023-01-30T18:39:16.722Z,27.19
2023-01-30T18:41:44.978Z,27.17
2023-01-30T18:44:13.538Z,27.13
2023-01-30T18:46:41.824Z,27.10
2023-01-30T18:49:10.220Z,27.07
2023-01-30T18:51:38.542Z,27.04
2023-01-30T18:54:06.857Z,26.98
2023-01-30T18:56:35.579Z,26.99
2023-01-30T18:59:05.679Z,26.98
2023-01-30T19:01:38.220Z,27.02
2023-01-30T19:04:08.502Z,27.10
2023-01-30T19:06:41.675Z,27.22
2023-01-30T19:09:15.210Z,27.36
2023-01-30T19:12:01.662Z,27.53
2023-01-30T19:14:29.897Z,27.78
2023-01-30T19:16:58.100Z,27.84
2023-01-30T19:19:27.298Z,27.96
2023-01-30T19:21:55.625Z,28.05
2023-01-30T19:24:24.069Z,28.16
2023-01-30T19:26:52.524Z,28.20
2023-01-30T19:29:20.959Z,28.29
2023-01-30T19:31:49.304Z,28.30
2023-01-30T19:34:17.799Z,28.32
2023-01-30T19:36:46.016Z,28.33
2023-01-30T19:39:14.352Z,28.32
2023-01-30T19:41:42.653Z,28.34
2023-01-30T19:44:12.376Z,28.30
2023-01-30T19:46:40.711Z,28.31
2023-01-30T19:49:11.553Z,28.27
2023-01-30T19:51:40.874Z,28.25
2023-01-30T19:54:11.010Z,28.24
2023-01-30T19:56:42.064Z,28.21
2023-01-30T19:59:11.569Z,28.14
2023-01-30T20:01:40.889Z,28.08
2023-01-30T20:04:09.375Z,28.04
2023-01-30T20:06:38.423Z,28.02
2023-01-30T20:09:08.511Z,27.95
2023-01-30T20:11:37.934Z,27.91
2023-01-30T20:14:07.294Z,27.86
2023-01-30T20:16:36.675Z,27.81
2023-01-30T20:19:07.571Z,27.76
2023-01-30T20:21:36.405Z,27.71
2023-01-30T20:24:05.132Z,27.68
2023-01-30T20:26:35.636Z,27.63
2023-01-30T20:29:04.800Z,27.62
2023-01-30T20:31:35.028Z,27.57
2023-01-30T20:34:04.838Z,27.51
2023-01-30T20:36:33.538Z,27.48
2023-01-30T20:39:04.115Z,27.41
2023-01-30T20:41:33.608Z,27.38
2023-01-30T20:44:01.838Z,27.35
2023-01-30T20:46:32.735Z,27.30
2023-01-30T20:49:01.730Z,27.28
2023-01-30T20:51:31.989Z,27.23
2023-01-30T20:54:06.267Z,27.19
2023-01-30T20:56:43.246Z,27.17
2023-01-30T20:59:14.051Z,27.15
2023-01-30T21:01:43.351Z,27.08
2023-01-30T21:04:13.869Z,27.02
2023-01-30T21:06:45.753Z,27.02
2023-01-30T21:09:20.649Z,27.05
2023-01-30T21:11:49.795Z,27.10
2023-01-30T21:14:18.142Z,27.16
2023-01-30T21:16:46.863Z,27.27
2023-01-30T21:19:16.619Z,27.40
2023-01-30T21:21:54.260Z,27.53
2023-01-30T21:24:26.415Z,27.72
2023-01-30T21:26:56.090Z,27.84
2023-01-30T21:29:26.035Z,27.94
2023-01-30T21:31:55.695Z,28.00
2023-01-30T21:34:24.722Z,28.08
2023-01-30T21:37:11.227Z,28.12
2023-01-30T21:40:09.422Z,28.21
2023-01-30T21:42:56.221Z,28.35
2023-01-30T21:45:24.509Z,28.28
2023-01-30T21:47:54.408Z,28.16
2023-01-30T21:50:22.732Z,28.17
2023-01-30T21:52:50.994Z,28.14
2023-01-30T21:55:19.431Z,28.08
2023-01-30T21:57:47.872Z,28.06
2023-01-30T22:00:16.260Z,28.05
2023-01-30T22:02:44.525Z,28.01
2023-01-30T22:05:12.787Z,27.96
2023-01-30T22:07:41.059Z,27.90
2023-01-30T22:10:09.983Z,27.86
2023-01-30T22:12:40.304Z,27.83
2023-01-30T22:15:11.179Z,27.80
2023-01-30T22:17:39.968Z,27.72
2023-01-30T22:20:10.260Z,27.66
2023-01-30T22:22:38.684Z,27.63
2023-01-30T22:25:07.741Z,27.56
2023-01-30T22:27:36.170Z,27.53
2023-01-30T22:30:04.737Z,27.48
2023-01-30T22:32:32.980Z,27.41
2023-01-30T22:35:01.255Z,27.39
2023-01-30T22:37:29.515Z,27.34
2023-01-30T22:39:57.739Z,27.29
2023-01-30T22:42:26.003Z,27.26
2023-01-30T22:44:54.639Z,27.19
2023-01-30T22:47:22.951Z,27.18
2023-01-30T22:49:51.233Z,27.15
2023-01-30T22:52:19.484Z,27.16
2023-01-30T22:54:47.734Z,27.25
2023-01-30T22:57:15.961Z,27.34
2023-01-30T22:59:44.174Z,27.46
2023-01-30T23:02:12.450Z,27.60
2023-01-30T23:04:40.693Z,27.73
2023-01-30T23:07:10.630Z,27.81
2023-01-30T23:09:39.161Z,27.92
2023-01-30T23:12:25.561Z,27.98
2023-01-30T23:14:53.785Z,28.11
2023-01-30T23:17:40.267Z,28.04
2023-01-30T23:20:09.248Z,28.18
2023-01-30T23:22:37.833Z,28.10
2023-01-30T23:25:06.580Z,28.08
2023-01-30T23:27:35.509Z,28.06
2023-01-30T23:30:03.986Z,28.08
2023-01-30T23:32:32.322Z,28.04
2023-01-30T23:35:00.529Z,28.02
2023-01-30T23:37:47.244Z,28.00
2023-01-30T23:40:15.671Z,28.04
2023-01-30T23:42:44.085Z,27.92
2023-01-30T23:45:12.421Z,27.90
2023-01-30T23:47:40.590Z,27.87
2023-01-30T23:50:09.391Z,27.84
2023-01-30T23:52:37.614Z,27.77
2023-01-30T23:55:06.869Z,27.76
2023-01-30T23:57:35.124Z,27.71
